Cornell, Iowa
Current Conditions -  °F | °C
As of 11:09 PM on Friday 21 Nov 2014 (Local Time) from KSPW Reporting Station
Haze Haze  
Wind Chill: 25°   Ceiling: 400
Heat Index: 35°   Visibility: 4mi
Dew Point: 33°   Wind: 17mph
Humidity: 92%   Direction: 210°SSW
Pressure: 29.91"   Gusts: NA
Location:  42.9244°N, 95.1316°W
Report Text: KSPW 220509Z AUTO 21015KT 4SM BR OVC004 02/01 A2991 RMK AO2 T00170006 TSNO
Loading
Personal Weather Stations






























Interactive Weather Map New forecast layout! Learn more

10-Day Weather Forecast

Advertisements
Track Severe Weather on mobile